Time;durP1;ratioP1;P1;durP2;ratioP2;P2;SDS_P1;SDS_P2;PMS_P1;PMS_P2;Temp;Humidity;BMP_temperature;BMP_pressure;BME280_temperature;BME280_humidity;BME280_pressure;Samples;Min_cycle;Max_cycle;Signal;HPM_P1;HPM_P2
2023/03/23 00:00:46;;;;;;;55.40;25.90;;;;;;;8.95;75.01;99681.48;108794;1275;22613;-61
2023/03/23 00:03:21;;;;;;;58.30;23.40;;;;;;;8.93;75.01;99680.39;109878;1267;22446;-62
2023/03/23 00:05:52;;;;;;;57.50;24.40;;;;;;;8.93;75.16;99677.60;106465;1281;22643;-61
2023/03/23 00:08:23;;;;;;;48.60;23.30;;;;;;;8.93;75.28;99671.59;106118;1281;24188;-61
2023/03/23 00:10:56;;;;;;;53.90;24.90;;;;;;;8.92;75.22;99669.48;106143;1279;22527;-61
2023/03/23 00:13:28;;;;;;;54.70;25.20;;;;;;;8.91;75.32;99674.59;109933;1274;22183;-62
2023/03/23 00:15:59;;;;;;;48.90;25.20;;;;;;;8.90;75.25;99672.75;109864;1277;22209;-61
2023/03/23 00:18:30;;;;;;;52.00;24.90;;;;;;;8.90;75.32;99669.36;106217;1271;22553;-61
2023/03/23 00:21:03;;;;;;;57.40;26.40;;;;;;;8.89;75.55;99673.20;106250;1281;22524;-61
2023/03/23 00:23:34;;;;;;;58.30;26.80;;;;;;;8.88;75.63;99671.45;106171;1281;25375;-61
2023/03/23 00:26:06;;;;;;;52.00;26.30;;;;;;;8.86;75.57;99674.66;106160;1277;22549;-62
2023/03/23 00:28:38;;;;;;;51.20;24.50;;;;;;;8.85;75.70;99671.60;106135;1275;22658;-66
2023/03/23 00:31:10;;;;;;;50.00;23.70;;;;;;;8.83;75.93;99666.77;105812;1279;5432926;-62
2023/03/23 00:33:42;;;;;;;47.30;23.30;;;;;;;8.81;76.12;99674.98;109972;1274;22378;-62
2023/03/23 00:36:14;;;;;;;41.60;21.20;;;;;;;8.79;76.25;99672.50;109941;1273;22403;-61
2023/03/23 00:38:46;;;;;;;40.10;20.20;;;;;;;8.76;76.15;99669.67;109982;1281;22328;-62
2023/03/23 00:41:18;;;;;;;45.40;20.80;;;;;;;8.74;76.38;99664.98;109973;1271;22133;-62
2023/03/23 00:43:48;;;;;;;45.40;20.70;;;;;;;8.74;76.50;99660.77;109982;1277;22204;-63
2023/03/23 00:46:20;;;;;;;41.60;19.20;;;;;;;8.73;76.64;99656.05;109976;1270;22122;-62
2023/03/23 00:48:51;;;;;;;41.90;19.40;;;;;;;8.71;76.65;99658.00;109996;1269;22312;-62
2023/03/23 00:51:22;;;;;;;42.80;20.50;;;;;;;8.69;76.78;99653.72;109950;1265;22307;-62
2023/03/23 00:53:53;;;;;;;40.90;19.60;;;;;;;8.67;77.09;99655.01;109970;1267;22182;-62
2023/03/23 00:56:26;;;;;;;45.70;18.70;;;;;;;8.65;77.00;99652.59;109947;1272;22916;-62
2023/03/23 00:58:57;;;;;;;38.00;17.70;;;;;;;8.64;77.13;99658.44;109952;1274;22152;-62
2023/03/23 01:01:28;;;;;;;35.60;18.10;;;;;;;8.64;77.17;99658.63;108803;1270;22526;-62
2023/03/23 01:04:03;;;;;;;35.90;16.60;;;;;;;8.64;77.24;99655.60;106139;1271;24211;-62
2023/03/23 01:06:38;;;;;;;35.40;15.70;;;;;;;8.65;77.21;99649.25;109952;1274;22231;-62
2023/03/23 01:09:14;;;;;;;45.90;18.50;;;;;;;8.67;77.36;99642.40;109974;1273;22313;-63
2023/03/23 01:11:45;;;;;;;35.90;17.00;;;;;;;8.69;77.36;99640.86;109967;1273;22414;-62
2023/03/23 01:14:19;;;;;;;38.70;17.00;;;;;;;8.71;77.35;99642.42;108404;1274;22877;-61
2023/03/23 01:16:50;;;;;;;41.60;20.90;;;;;;;8.73;77.37;99639.11;106200;1281;24198;-61
2023/03/23 01:19:21;;;;;;;41.40;20.00;;;;;;;8.74;77.43;99635.18;106125;1281;24393;-61
2023/03/23 01:21:52;;;;;;;44.10;21.30;;;;;;;8.74;77.62;99635.48;106036;1274;25499;-61
2023/03/23 01:24:23;;;;;;;39.90;19.20;;;;;;;8.72;77.91;99642.59;105984;1281;23152;-61
2023/03/23 01:26:54;;;;;;;39.70;17.50;;;;;;;8.70;77.83;99642.45;106200;1280;25384;-62
2023/03/23 01:29:25;;;;;;;38.60;18.20;;;;;;;8.71;77.91;99639.17;106099;1276;23881;-61
2023/03/23 01:31:56;;;;;;;42.50;20.10;;;;;;;8.72;78.00;99633.48;106056;1281;22530;-62
2023/03/23 01:34:26;;;;;;;39.60;18.80;;;;;;;8.72;78.13;99630.13;106136;1274;22562;-61
2023/03/23 01:36:57;;;;;;;39.30;19.00;;;;;;;8.72;78.10;99628.52;106042;1281;22528;-61
2023/03/23 01:39:28;;;;;;;41.80;20.50;;;;;;;8.72;78.23;99627.50;109957;1273;23416;-61
2023/03/23 01:41:59;;;;;;;40.10;18.00;;;;;;;8.71;78.35;99631.59;109974;1280;22299;-62
2023/03/23 01:45:16;;;;;;;39.80;18.60;;;;;;;8.71;78.46;99628.91;109986;1274;23112;-62
2023/03/23 01:47:47;;;;;;;39.80;18.80;;;;;;;8.70;78.45;99624.55;109675;1277;22190;-62
2023/03/23 01:50:20;;;;;;;39.70;18.90;;;;;;;8.71;78.56;99621.17;109700;1280;23090;-62
2023/03/23 01:52:52;;;;;;;39.50;18.80;;;;;;;8.71;78.64;99616.21;109693;1282;23123;-62
2023/03/23 01:55:25;;;;;;;41.50;17.80;;;;;;;8.72;78.96;99617.39;109650;1280;22917;-62
2023/03/23 01:57:57;;;;;;;39.30;17.40;;;;;;;8.71;78.78;99618.23;109678;1282;22240;-62
2023/03/23 02:00:28;;;;;;;32.60;15.60;;;;;;;8.72;78.86;99609.04;109687;1271;23112;-61
2023/03/23 02:03:01;;;;;;;37.70;19.30;;;;;;;8.73;79.04;99610.83;109703;1280;22226;-62
2023/03/23 02:05:36;;;;;;;37.50;18.00;;;;;;;8.72;79.08;99609.35;109674;1280;22865;-62
2023/03/23 02:08:09;;;;;;;37.70;16.80;;;;;;;8.71;79.01;99609.02;109699;1279;22209;-62
2023/03/23 02:10:40;;;;;;;39.00;18.70;;;;;;;8.71;78.87;99605.38;109690;1280;22758;-62
2023/03/23 02:13:13;;;;;;;37.40;16.80;;;;;;;8.72;78.89;99601.50;109688;1276;22170;-62
2023/03/23 02:15:54;;;;;;;40.30;18.20;;;;;;;8.72;79.17;99596.15;109663;1273;22379;-62
2023/03/23 02:18:39;;;;;;;42.50;19.40;;;;;;;8.73;79.15;99590.48;109693;1280;22416;-62
2023/03/23 02:21:32;;;;;;;40.70;16.90;;;;;;;8.72;79.19;99585.27;109667;1280;25334;-61
2023/03/23 02:24:30;;;;;;;35.30;15.20;;;;;;;8.72;79.39;99589.50;109960;1273;22188;-62
2023/03/23 02:27:08;;;;;;;32.80;13.20;;;;;;;8.71;79.35;99589.80;109955;1274;22424;-63
2023/03/23 02:30:09;;;;;;;27.60;11.80;;;;;;;8.69;79.49;99590.11;109984;1281;22979;-61
2023/03/23 02:33:05;;;;;;;31.30;12.40;;;;;;;8.68;79.50;99592.18;109953;1281;22352;-63
2023/03/23 02:35:40;;;;;;;29.70;12.20;;;;;;;8.68;79.50;99591.46;109644;1285;22226;-61
2023/03/23 02:38:17;;;;;;;30.90;12.10;;;;;;;8.69;79.28;99592.19;109634;1263;23188;-62
2023/03/23 02:40:50;;;;;;;28.40;12.50;;;;;;;8.71;79.21;99588.02;109650;1273;23100;-62
2023/03/23 02:43:25;;;;;;;27.50;11.80;;;;;;;8.72;79.25;99585.58;109665;1280;22405;-62
2023/03/23 02:45:58;;;;;;;31.80;13.20;;;;;;;8.74;79.33;99575.69;109616;1279;22461;-61
2023/03/23 02:48:31;;;;;;;34.20;15.10;;;;;;;8.76;79.47;99569.38;109633;1273;23071;-62
2023/03/23 02:51:05;;;;;;;31.20;12.80;;;;;;;8.77;79.80;99569.30;109666;1280;23144;-61
2023/03/23 02:53:38;;;;;;;26.30;10.70;;;;;;;8.77;79.86;99573.65;109680;1285;23068;-61
2023/03/23 02:56:12;;;;;;;24.20;9.70;;;;;;;8.77;79.75;99576.89;109655;1280;22711;-61
2023/03/23 02:58:43;;;;;;;25.40;9.80;;;;;;;8.77;79.90;99576.23;109632;1280;22187;-61
2023/03/23 03:01:33;;;;;;;22.00;9.30;;;;;;;8.77;79.89;99577.66;109649;1279;22199;-62
2023/03/23 03:04:08;;;;;;;22.40;7.90;;;;;;;8.79;79.93;99580.00;109625;1279;23023;-62
2023/03/23 03:06:49;;;;;;;24.90;7.20;;;;;;;8.81;79.93;99574.52;109631;1272;22576;-61
2023/03/23 03:09:27;;;;;;;23.10;8.30;;;;;;;8.84;80.13;99581.65;109607;1280;22223;-62
2023/03/23 03:12:05;;;;;;;23.10;7.80;;;;;;;8.85;80.11;99582.44;109651;1286;22193;-61
2023/03/23 03:14:42;;;;;;;22.10;8.60;;;;;;;8.87;80.20;99585.45;109914;1281;22197;-61
2023/03/23 03:17:20;;;;;;;21.90;8.70;;;;;;;8.90;80.25;99584.17;109955;1274;22349;-62
2023/03/23 03:19:56;;;;;;;28.70;10.90;;;;;;;8.92;80.23;99584.36;109984;1273;22191;-62
2023/03/23 03:22:29;;;;;;;27.10;11.30;;;;;;;8.94;80.20;99576.45;109963;1273;22884;-62
2023/03/23 03:25:02;;;;;;;27.40;12.10;;;;;;;8.96;80.34;99578.55;109938;1273;22387;-62
2023/03/23 03:27:34;;;;;;;32.70;15.20;;;;;;;8.99;80.26;99576.77;109960;1266;22270;-61
2023/03/23 03:30:11;;;;;;;34.60;15.20;;;;;;;9.01;80.25;99574.47;109976;1273;22284;-62
2023/03/23 03:32:48;;;;;;;40.60;20.50;;;;;;;9.02;80.44;99565.98;109970;1270;22274;-61
2023/03/23 03:35:20;;;;;;;43.50;19.00;;;;;;;9.03;80.24;99562.66;109902;1270;23178;-62
2023/03/23 03:37:51;;;;;;;37.50;19.70;;;;;;;9.06;80.37;99558.94;109947;1275;22201;-61
2023/03/23 03:40:26;;;;;;;34.20;18.40;;;;;;;9.07;80.10;99554.71;109952;1269;22225;-63
2023/03/23 03:42:57;;;;;;;35.80;18.50;;;;;;;9.10;80.36;99554.39;109945;1273;22402;-62
2023/03/23 03:45:28;;;;;;;34.70;17.80;;;;;;;9.11;80.40;99549.55;109926;1265;22184;-61
2023/03/23 03:47:58;;;;;;;32.10;16.80;;;;;;;9.13;80.38;99547.48;109987;1281;22190;-61
2023/03/23 03:50:29;;;;;;;30.30;16.20;;;;;;;9.14;80.29;99546.23;109965;1266;23242;-62
2023/03/23 03:53:00;;;;;;;26.80;12.60;;;;;;;9.16;80.26;99550.98;109950;1276;22851;-62
2023/03/23 03:55:35;;;;;;;26.80;12.00;;;;;;;9.18;80.29;99544.22;109959;1266;22150;-62
2023/03/23 03:58:07;;;;;;;25.60;11.10;;;;;;;9.21;80.15;99547.05;109886;1279;22169;-61
2023/03/23 04:00:38;;;;;;;22.40;10.20;;;;;;;9.23;80.26;99539.54;109971;1273;22174;-62
2023/03/23 04:03:10;;;;;;;26.70;10.20;;;;;;;9.26;80.20;99541.39;109969;1265;22224;-62
2023/03/23 04:05:41;;;;;;;21.70;9.40;;;;;;;9.28;80.32;99538.07;109953;1278;22183;-61
2023/03/23 04:08:12;;;;;;;21.80;8.00;;;;;;;9.29;80.10;99535.52;109936;1270;22143;-61
2023/03/23 04:10:43;;;;;;;16.80;7.40;;;;;;;9.32;79.99;99543.85;109951;1273;22781;-62
2023/03/23 04:13:14;;;;;;;19.10;6.90;;;;;;;9.34;80.02;99545.60;109965;1266;22132;-61
2023/03/23 04:15:46;;;;;;;18.90;6.60;;;;;;;9.36;80.03;99549.20;109957;1266;22299;-62
2023/03/23 04:18:17;;;;;;;16.80;5.30;;;;;;;9.38;79.92;99552.37;109956;1273;22291;-61
2023/03/23 04:20:50;;;;;;;16.10;4.80;;;;;;;9.39;79.99;99553.52;109955;1273;22284;-61
2023/03/23 04:23:22;;;;;;;15.10;5.50;;;;;;;9.41;79.70;99549.54;109987;1266;23107;-62
2023/03/23 04:25:57;;;;;;;13.30;3.80;;;;;;;9.43;79.73;99545.52;109951;1273;22435;-63
2023/03/23 04:28:29;;;;;;;17.20;4.00;;;;;;;9.45;79.67;99544.27;109960;1270;22925;-62
2023/03/23 04:31:00;;;;;;;17.20;6.10;;;;;;;9.48;79.67;99549.02;109930;1267;22184;-62
2023/03/23 04:33:31;;;;;;;12.10;3.70;;;;;;;9.50;79.69;99546.95;109968;1273;22201;-62
2023/03/23 04:36:05;;;;;;;18.60;5.20;;;;;;;9.50;79.73;99551.21;109988;1281;22212;-62
2023/03/23 04:38:36;;;;;;;12.20;4.00;;;;;;;9.51;79.71;99554.22;109972;1281;22645;-62
2023/03/23 04:41:07;;;;;;;17.70;5.30;;;;;;;9.53;79.72;99552.73;109953;1273;22824;-63
2023/03/23 04:43:42;;;;;;;14.30;4.50;;;;;;;9.55;79.64;99551.83;109964;1273;22246;-62
2023/03/23 04:46:17;;;;;;;13.70;4.20;;;;;;;9.57;79.66;99549.94;109961;1276;22366;-63
2023/03/23 04:48:49;;;;;;;11.50;3.70;;;;;;;9.60;79.52;99555.44;109953;1266;22184;-63
2023/03/23 04:51:20;;;;;;;13.10;3.00;;;;;;;9.64;79.67;99548.23;109964;1273;22232;-63
2023/03/23 04:53:51;;;;;;;13.70;3.60;;;;;;;9.68;79.44;99544.95;109971;1281;22307;-62
2023/03/23 04:56:22;;;;;;;13.00;3.80;;;;;;;9.74;79.44;99545.67;109978;1273;22157;-62
2023/03/23 04:58:53;;;;;;;11.50;3.10;;;;;;;9.79;79.42;99547.45;109938;1273;22134;-62
2023/03/23 05:01:27;;;;;;;11.80;3.40;;;;;;;9.85;79.29;99544.06;109987;1273;22147;-61
2023/03/23 05:04:00;;;;;;;15.70;3.90;;;;;;;9.90;79.12;99545.33;109943;1270;22140;-61
2023/03/23 05:06:31;;;;;;;11.40;3.40;;;;;;;9.93;79.09;99544.25;109977;1273;22345;-62
2023/03/23 05:09:03;;;;;;;14.00;3.60;;;;;;;9.96;79.09;99540.38;109959;1267;22162;-61
2023/03/23 05:11:33;;;;;;;12.60;4.30;;;;;;;10.00;78.95;99539.20;109966;1273;22187;-61
2023/03/23 05:14:05;;;;;;;9.80;3.40;;;;;;;10.04;78.85;99536.30;109964;1270;23477;-61
2023/03/23 05:16:37;;;;;;;14.90;3.60;;;;;;;10.09;78.68;99534.52;109963;1270;22136;-61
2023/03/23 05:19:08;;;;;;;11.20;3.40;;;;;;;10.13;78.79;99529.92;109953;1274;22907;-61
2023/03/23 05:21:39;;;;;;;9.60;2.90;;;;;;;10.16;78.66;99529.77;109942;1270;22170;-61
2023/03/23 05:24:10;;;;;;;16.40;4.10;;;;;;;10.19;78.77;99528.97;109917;1273;22327;-61
2023/03/23 05:26:42;;;;;;;13.60;4.50;;;;;;;10.22;78.71;99528.39;109949;1280;22193;-61
2023/03/23 05:29:13;;;;;;;12.50;3.40;;;;;;;10.25;78.66;99528.91;109909;1273;22219;-61
2023/03/23 05:31:44;;;;;;;11.60;3.20;;;;;;;10.28;78.44;99529.91;109913;1274;22322;-62
2023/03/23 05:34:16;;;;;;;15.70;3.50;;;;;;;10.31;78.26;99528.42;109912;1273;22649;-63
2023/03/23 05:36:49;;;;;;;14.10;3.10;;;;;;;10.34;78.26;99527.33;109941;1270;22276;-61
2023/03/23 05:39:20;;;;;;;12.00;2.70;;;;;;;10.38;78.21;99526.71;109930;1273;22210;-61
2023/03/23 05:41:51;;;;;;;12.00;2.70;;;;;;;10.42;77.89;99517.23;109959;1281;22352;-61
2023/03/23 05:44:22;;;;;;;9.60;2.70;;;;;;;10.46;77.88;99520.52;109926;1273;22185;-66
2023/03/23 05:46:53;;;;;;;9.30;3.20;;;;;;;10.50;77.88;99521.42;109931;1273;22213;-61
2023/03/23 05:49:26;;;;;;;9.00;2.50;;;;;;;10.54;77.80;99530.54;109946;1273;23368;-62
2023/03/23 05:51:58;;;;;;;10.40;2.70;;;;;;;10.59;77.70;99524.73;109949;1274;23444;-64
2023/03/23 05:54:29;;;;;;;12.70;3.00;;;;;;;10.63;77.64;99526.53;109948;1267;22171;-61
2023/03/23 05:57:00;;;;;;;7.20;2.20;;;;;;;10.68;77.44;99529.88;109958;1281;22200;-61
2023/03/23 05:59:33;;;;;;;14.70;2.60;;;;;;;10.74;77.42;99522.60;109963;1267;22268;-62
2023/03/23 06:02:04;;;;;;;10.50;2.50;;;;;;;10.79;77.29;99533.60;109954;1273;22165;-62
2023/03/23 06:04:37;;;;;;;10.50;2.30;;;;;;;10.83;77.20;99532.36;109967;1273;22181;-61
2023/03/23 06:07:12;;;;;;;8.10;2.10;;;;;;;10.87;77.20;99535.77;109975;1270;22184;-61
2023/03/23 06:09:43;;;;;;;10.30;2.40;;;;;;;10.89;77.10;99529.31;109927;1270;22165;-61
2023/03/23 06:12:14;;;;;;;8.90;2.50;;;;;;;10.93;76.94;99527.55;109985;1273;22394;-62
2023/03/23 06:14:45;;;;;;;10.80;2.40;;;;;;;10.96;76.73;99516.29;109947;1281;22209;-62
2023/03/23 06:17:17;;;;;;;10.70;2.40;;;;;;;11.00;76.72;99511.19;109932;1267;22890;-61
2023/03/23 06:19:49;;;;;;;10.10;2.00;;;;;;;11.04;76.66;99510.14;109964;1273;22172;-59
2023/03/23 06:22:21;;;;;;;7.50;1.90;;;;;;;11.08;76.72;99511.84;109966;1273;22192;-62
2023/03/23 06:24:52;;;;;;;8.10;1.80;;;;;;;11.14;76.56;99519.13;109929;1273;22965;-61
2023/03/23 06:27:23;;;;;;;10.60;2.30;;;;;;;11.20;76.27;99519.63;109954;1273;22218;-68
2023/03/23 06:29:56;;;;;;;6.30;1.50;;;;;;;11.28;76.16;99519.71;109985;1281;22169;-62
2023/03/23 06:32:32;;;;;;;10.20;2.40;;;;;;;11.38;76.04;99516.40;108150;1272;22541;-61
2023/03/23 06:35:04;;;;;;;7.10;1.80;;;;;;;11.50;75.67;99516.09;108099;1274;22607;-63
2023/03/23 06:37:36;;;;;;;8.90;2.20;;;;;;;11.61;75.84;99507.98;107158;1274;23815;-62
2023/03/23 06:40:10;;;;;;;8.90;1.80;;;;;;;11.72;75.61;99506.95;106920;1267;24253;-57
2023/03/23 06:42:42;;;;;;;7.20;1.40;;;;;;;11.83;75.69;99504.53;107768;1279;24252;-60
2023/03/23 06:45:16;;;;;;;9.10;2.20;;;;;;;11.93;75.59;99507.29;106363;1273;22520;-60
2023/03/23 06:47:49;;;;;;;7.10;1.40;;;;;;;12.03;75.57;99505.17;106550;1281;22559;-60
2023/03/23 06:50:20;;;;;;;9.10;1.90;;;;;;;12.15;75.02;99505.13;107278;1271;22639;-62
2023/03/23 06:52:53;;;;;;;10.10;2.20;;;;;;;12.27;75.02;99506.16;106876;1274;22523;-61
2023/03/23 06:55:25;;;;;;;9.80;1.80;;;;;;;12.38;74.68;99509.73;106625;1280;24380;-60
2023/03/23 06:57:59;;;;;;;6.90;1.80;;;;;;;12.50;74.16;99512.67;107210;1273;22523;-60
2023/03/23 07:00:33;;;;;;;11.00;2.10;;;;;;;12.59;73.97;99507.77;107477;1273;23869;-59
2023/03/23 07:03:05;;;;;;;12.00;2.50;;;;;;;12.67;73.99;99505.98;106055;1281;22546;-59
2023/03/23 07:05:38;;;;;;;8.80;1.80;;;;;;;12.76;73.76;99505.01;106290;1281;24264;-61
2023/03/23 07:08:10;;;;;;;7.60;1.90;;;;;;;12.84;73.55;99507.69;106557;1279;22601;-61
2023/03/23 07:10:41;;;;;;;8.80;1.60;;;;;;;12.93;73.21;99505.37;109945;1273;23086;-60
2023/03/23 07:13:13;;;;;;;7.40;1.80;;;;;;;13.03;73.08;99500.38;107783;1273;25337;-60
2023/03/23 07:15:45;;;;;;;9.30;1.80;;;;;;;13.13;72.59;99503.11;109890;1273;22662;-60
2023/03/23 07:18:18;;;;;;;8.10;1.60;;;;;;;13.23;72.11;99503.48;107070;1278;23778;-61
2023/03/23 07:20:52;;;;;;;13.40;1.60;;;;;;;13.33;71.47;99501.41;106179;1276;22794;-61
2023/03/23 07:23:24;;;;;;;7.30;1.90;;;;;;;13.44;71.32;99500.91;107468;1280;22764;-61
2023/03/23 07:25:57;;;;;;;10.40;2.30;;;;;;;13.53;71.17;99504.85;106446;1267;25362;-62
2023/03/23 07:28:29;;;;;;;13.50;2.10;;;;;;;13.61;70.91;99497.73;106327;1280;23073;-61
2023/03/23 07:31:02;;;;;;;9.80;1.80;;;;;;;13.71;70.21;99493.98;106977;1280;23165;-62
2023/03/23 07:33:35;;;;;;;13.40;1.90;;;;;;;13.80;69.59;99496.17;106225;1276;24328;-59
2023/03/23 07:36:09;;;;;;;10.20;2.40;;;;;;;13.85;69.54;99500.55;106211;1276;25575;-60
2023/03/23 07:38:41;;;;;;;9.20;1.90;;;;;;;13.88;69.86;99497.83;106157;1279;24291;-61
2023/03/23 07:41:13;;;;;;;10.20;1.90;;;;;;;13.88;69.37;99493.85;106088;1282;22534;-62
2023/03/23 07:43:46;;;;;;;10.90;2.50;;;;;;;13.88;69.02;99496.96;106878;1282;24272;-61
2023/03/23 07:46:18;;;;;;;9.80;2.50;;;;;;;13.85;69.16;99496.72;106253;1277;22542;-61
2023/03/23 07:48:51;;;;;;;10.80;3.00;;;;;;;13.82;68.69;99499.14;106444;1267;22533;-62
2023/03/23 07:51:22;;;;;;;15.00;2.60;;;;;;;13.80;68.90;99497.77;106064;1267;22658;-61
2023/03/23 07:53:54;;;;;;;14.10;2.90;;;;;;;13.79;69.13;99498.08;105990;1282;22541;-61
2023/03/23 07:56:26;;;;;;;11.80;2.40;;;;;;;13.80;68.90;99501.55;109883;1276;22938;-61
2023/03/23 07:58:57;;;;;;;12.50;2.30;;;;;;;13.84;68.78;99501.21;109884;1277;22218;-62
2023/03/23 08:01:28;;;;;;;10.70;2.40;;;;;;;13.90;68.89;99500.56;109872;1275;22848;-61
2023/03/23 08:03:59;;;;;;;12.80;3.10;;;;;;;14.01;69.20;99504.11;109874;1275;22127;-62
2023/03/23 08:06:33;;;;;;;12.60;2.70;;;;;;;14.15;68.92;99498.56;109882;1274;22998;-61
2023/03/23 08:09:06;;;;;;;7.70;2.00;;;;;;;14.26;68.63;99495.52;109890;1277;22160;-62
2023/03/23 08:11:38;;;;;;;10.50;2.60;;;;;;;14.33;68.09;99489.15;109868;1282;22206;-62
2023/03/23 08:14:09;;;;;;;8.30;2.20;;;;;;;14.37;68.17;99484.68;109848;1276;22196;-61
2023/03/23 08:16:41;;;;;;;13.70;3.00;;;;;;;14.41;67.97;99484.90;109863;1277;22173;-62
2023/03/23 08:19:13;;;;;;;12.10;3.30;;;;;;;14.45;68.09;99480.98;109877;1275;22233;-62
2023/03/23 08:21:43;;;;;;;9.40;2.80;;;;;;;14.48;67.88;99477.89;109884;1276;22159;-62
2023/03/23 08:24:14;;;;;;;12.70;3.00;;;;;;;14.53;67.73;99469.52;109896;1267;22334;-61
2023/03/23 08:26:46;;;;;;;10.20;2.80;;;;;;;14.55;67.40;99467.15;109882;1283;22333;-62
2023/03/23 08:29:17;;;;;;;11.50;3.00;;;;;;;14.60;67.42;99469.36;109872;1276;22182;-62
2023/03/23 08:31:48;;;;;;;8.10;2.20;;;;;;;14.65;67.38;99466.39;109916;1272;22158;-62
2023/03/23 08:34:20;;;;;;;11.00;2.70;;;;;;;14.70;67.17;99456.27;109895;1279;22225;-62
2023/03/23 08:36:51;;;;;;;7.70;1.90;;;;;;;14.76;66.56;99453.27;109855;1275;23021;-62
2023/03/23 08:39:23;;;;;;;10.50;2.40;;;;;;;14.81;66.26;99451.93;109871;1275;22167;-62
2023/03/23 08:41:54;;;;;;;10.50;1.90;;;;;;;14.87;65.54;99453.80;109895;1282;22231;-62
2023/03/23 08:44:24;;;;;;;10.10;2.00;;;;;;;14.94;65.37;99457.46;109882;1273;22210;-62
2023/03/23 08:46:57;;;;;;;13.40;2.80;;;;;;;15.05;65.25;99466.17;109882;1271;22207;-62
2023/03/23 08:49:28;;;;;;;11.20;2.40;;;;;;;15.19;65.20;99475.05;109879;1274;22233;-61
2023/03/23 08:52:00;;;;;;;7.90;1.90;;;;;;;15.41;65.06;99474.49;109882;1274;22249;-68
2023/03/23 08:54:31;;;;;;;10.40;2.70;;;;;;;15.63;64.19;99468.20;109902;1267;22322;-59
2023/03/23 08:57:03;;;;;;;10.10;2.50;;;;;;;15.78;64.09;99476.15;109897;1277;22992;-59
2023/03/23 08:59:34;;;;;;;10.30;2.30;;;;;;;15.89;63.43;99481.20;109918;1277;22910;-59
2023/03/23 09:02:06;;;;;;;10.00;1.60;;;;;;;15.96;62.83;99488.13;109890;1270;22176;-60
2023/03/23 09:04:37;;;;;;;10.70;1.90;;;;;;;16.00;62.24;99491.48;109887;1279;22277;-58
2023/03/23 09:07:09;;;;;;;9.90;1.80;;;;;;;16.09;62.62;99485.06;109877;1274;22163;-59
2023/03/23 09:09:40;;;;;;;9.00;1.80;;;;;;;16.19;62.33;99490.74;109886;1276;22211;-61
2023/03/23 09:12:12;;;;;;;6.80;1.50;;;;;;;16.27;62.26;99494.31;109881;1267;23593;-61
2023/03/23 09:14:43;;;;;;;5.40;1.10;;;;;;;16.34;60.64;99496.86;109904;1282;22386;-61
2023/03/23 09:17:16;;;;;;;6.00;1.20;;;;;;;16.41;59.08;99499.02;109873;1274;22176;-62
2023/03/23 09:19:47;;;;;;;8.90;1.40;;;;;;;16.49;59.65;99494.92;109883;1277;22397;-65
2023/03/23 09:22:19;;;;;;;3.20;0.80;;;;;;;16.56;58.17;99493.29;109897;1273;22161;-62
2023/03/23 09:24:51;;;;;;;5.70;0.80;;;;;;;16.60;57.85;99499.42;107447;1282;22537;-61
2023/03/23 09:27:22;;;;;;;5.30;0.90;;;;;;;16.64;57.15;99499.61;109887;1274;22170;-62
2023/03/23 09:29:55;;;;;;;4.50;0.60;;;;;;;16.67;56.92;99492.58;109893;1282;22169;-62
2023/03/23 09:32:26;;;;;;;5.20;0.70;;;;;;;16.68;56.25;99487.08;109870;1266;22906;-62
2023/03/23 09:34:57;;;;;;;6.00;0.90;;;;;;;16.73;57.19;99488.88;109872;1276;22122;-62
2023/03/23 09:37:29;;;;;;;6.00;0.90;;;;;;;16.79;57.23;99489.95;109871;1277;23030;-62
2023/03/23 09:40:01;;;;;;;3.50;0.90;;;;;;;16.81;56.50;99494.80;109877;1276;22195;-62
2023/03/23 09:42:42;;;;;;;8.90;1.10;;;;;;;16.80;56.42;99490.83;109892;1267;22781;-63
2023/03/23 09:45:22;;;;;;;3.30;0.90;;;;;;;16.78;56.61;99490.80;109780;1274;23070;-62
2023/03/23 09:48:08;;;;;;;5.70;0.90;;;;;;;16.79;56.32;99494.84;109889;1283;22159;-59
2023/03/23 09:50:43;;;;;;;4.10;1.00;;;;;;;16.80;56.21;99495.98;109827;1282;22190;-62
2023/03/23 09:53:22;;;;;;;5.20;1.10;;;;;;;16.85;55.39;99498.46;109886;1277;22213;-62
2023/03/23 09:55:53;;;;;;;6.20;1.00;;;;;;;16.95;55.26;99493.61;109868;1267;22166;-62
2023/03/23 09:58:28;;;;;;;3.60;0.90;;;;;;;17.05;54.86;99497.33;109885;1275;22898;-62
2023/03/23 10:01:03;;;;;;;3.00;0.80;;;;;;;17.16;54.46;99504.35;109871;1267;22181;-62
2023/03/23 10:03:39;;;;;;;7.40;1.10;;;;;;;17.24;54.04;99497.73;109903;1272;22229;-61
2023/03/23 10:06:13;;;;;;;5.20;0.80;;;;;;;17.29;53.64;99491.79;109847;1267;22472;-62
2023/03/23 10:08:48;;;;;;;3.00;0.70;;;;;;;17.32;54.41;99493.36;109880;1282;22235;-62
2023/03/23 10:11:27;;;;;;;4.00;0.70;;;;;;;17.36;54.13;99494.25;109925;1276;22154;-62
2023/03/23 10:14:12;;;;;;;2.40;0.60;;;;;;;17.37;53.37;99497.34;109895;1276;22212;-63
2023/03/23 10:16:47;;;;;;;4.70;1.00;;;;;;;17.38;54.01;99495.89;109864;1270;22165;-62
2023/03/23 10:19:28;;;;;;;3.80;0.80;;;;;;;17.44;53.72;99495.31;109898;1279;22127;-62
2023/03/23 10:22:05;;;;;;;2.20;0.50;;;;;;;17.47;53.18;99490.59;109895;1267;22263;-62
2023/03/23 10:24:44;;;;;;;3.70;0.70;;;;;;;17.49;53.42;99491.16;109904;1266;22221;-62
2023/03/23 10:27:27;;;;;;;2.60;0.70;;;;;;;17.57;53.33;99493.48;109905;1268;22346;-62
2023/03/23 10:30:02;;;;;;;5.60;0.80;;;;;;;17.61;52.48;99497.05;109907;1282;22212;-61
2023/03/23 10:32:49;;;;;;;3.30;0.60;;;;;;;17.62;52.98;99488.40;109893;1263;22215;-62
2023/03/23 10:35:26;;;;;;;3.90;0.60;;;;;;;17.69;52.40;99482.92;109890;1267;22210;-62
2023/03/23 10:38:01;;;;;;;3.30;0.50;;;;;;;17.81;51.87;99495.52;109881;1276;22180;-62
2023/03/23 10:40:35;;;;;;;3.70;0.70;;;;;;;17.94;51.43;99490.77;109880;1276;22142;-61
2023/03/23 10:43:06;;;;;;;2.20;0.50;;;;;;;17.99;50.99;99496.91;109863;1277;22677;-62
2023/03/23 10:45:37;;;;;;;3.40;0.50;;;;;;;17.96;50.73;99510.27;109897;1277;22219;-62
2023/03/23 10:48:14;;;;;;;2.20;0.50;;;;;;;17.92;50.41;99509.05;109853;1276;22223;-62
2023/03/23 10:50:49;;;;;;;2.80;0.50;;;;;;;17.85;50.28;99507.81;109892;1277;22464;-62
2023/03/23 10:53:23;;;;;;;3.30;0.40;;;;;;;17.81;50.68;99507.33;109855;1277;22909;-62
2023/03/23 10:55:55;;;;;;;1.40;0.30;;;;;;;17.76;49.93;99510.63;109899;1277;22175;-62
2023/03/23 10:58:29;;;;;;;4.60;1.20;;;;;;;17.68;49.93;99516.48;109881;1273;22189;-62
2023/03/23 11:01:02;;;;;;;5.70;0.60;;;;;;;17.62;50.25;99522.61;109906;1275;22181;-62
2023/03/23 11:03:43;;;;;;;3.10;0.70;;;;;;;17.56;49.77;99523.41;109866;1277;22207;-62
2023/03/23 11:06:23;;;;;;;3.80;0.40;;;;;;;17.51;50.29;99517.10;109869;1266;23123;-62
2023/03/23 11:08:57;;;;;;;2.60;0.30;;;;;;;17.52;50.49;99520.38;109903;1282;22317;-62
2023/03/23 11:11:30;;;;;;;1.70;0.40;;;;;;;17.56;50.38;99522.12;109873;1277;22224;-62
2023/03/23 11:14:20;;;;;;;2.90;0.60;;;;;;;17.62;49.97;99522.61;109921;1270;22171;-62
2023/03/23 11:16:55;;;;;;;2.30;0.40;;;;;;;17.68;49.93;99523.75;109882;1273;22325;-62
2023/03/23 11:19:28;;;;;;;3.50;0.40;;;;;;;17.71;49.95;99520.54;109893;1267;22154;-62
2023/03/23 11:22:09;;;;;;;7.60;0.40;;;;;;;17.70;49.55;99530.32;109912;1270;22214;-62
2023/03/23 11:24:46;;;;;;;5.90;0.50;;;;;;;17.67;49.88;99526.07;109840;1279;22162;-62
2023/03/23 11:27:18;;;;;;;8.40;1.00;;;;;;;17.66;50.22;99524.08;109868;1267;22181;-61
2023/03/23 11:29:54;;;;;;;2.90;0.50;;;;;;;17.69;50.02;99522.77;109892;1283;22155;-62
2023/03/23 11:32:29;;;;;;;4.00;0.60;;;;;;;17.71;49.58;99521.45;109879;1267;22161;-62
2023/03/23 11:35:04;;;;;;;4.00;0.40;;;;;;;17.73;49.50;99524.74;109880;1277;22187;-62
2023/03/23 11:37:41;;;;;;;1.90;0.40;;;;;;;17.75;49.28;99527.90;109868;1277;22196;-62
2023/03/23 11:40:20;;;;;;;4.00;0.70;;;;;;;17.78;49.38;99525.78;109876;1277;22194;-62
2023/03/23 11:42:58;;;;;;;3.20;0.30;;;;;;;17.81;49.48;99524.88;109891;1272;22162;-62
2023/03/23 11:45:35;;;;;;;3.70;0.30;;;;;;;17.83;48.96;99524.95;109806;1274;22193;-63
2023/03/23 11:48:21;;;;;;;4.60;1.00;;;;;;;17.84;48.77;99527.65;109921;1276;22328;-62
2023/03/23 11:50:55;;;;;;;2.40;0.40;;;;;;;17.83;48.79;99525.98;109897;1282;23288;-62